sensor_id;sensor_type;location;lat;lon;timestamp;P1;durP1;ratioP1;P2;durP2;ratioP2
30677;SDS011;17437;47.188;8.896;2022-12-24T00:01:13;0.88;;;0.30;;
30677;SDS011;17437;47.188;8.896;2022-12-24T00:03:45;0.37;;;0.23;;
30677;SDS011;17437;47.188;8.896;2022-12-24T00:06:18;0.93;;;0.28;;
30677;SDS011;17437;47.188;8.896;2022-12-24T00:08:51;0.37;;;0.20;;
30677;SDS011;17437;47.188;8.896;2022-12-24T00:11:22;0.45;;;0.20;;
30677;SDS011;17437;47.188;8.896;2022-12-24T00:13:54;2.50;;;0.40;;
30677;SDS011;17437;47.188;8.896;2022-12-24T00:16:26;0.78;;;0.50;;
30677;SDS011;17437;47.188;8.896;2022-12-24T00:18:58;0.15;;;0.10;;
30677;SDS011;17437;47.188;8.896;2022-12-24T00:21:30;0.37;;;0.30;;
30677;SDS011;17437;47.188;8.896;2022-12-24T00:24:01;0.50;;;0.10;;
30677;SDS011;17437;47.188;8.896;2022-12-24T00:26:34;1.55;;;0.28;;
30677;SDS011;17437;47.188;8.896;2022-12-24T00:29:05;1.98;;;0.30;;
30677;SDS011;17437;47.188;8.896;2022-12-24T00:31:37;0.68;;;0.20;;
30677;SDS011;17437;47.188;8.896;2022-12-24T00:34:09;1.62;;;0.33;;
30677;SDS011;17437;47.188;8.896;2022-12-24T00:36:40;0.47;;;0.20;;
30677;SDS011;17437;47.188;8.896;2022-12-24T00:39:12;0.08;;;0.08;;
30677;SDS011;17437;47.188;8.896;2022-12-24T00:41:43;0.55;;;0.10;;
30677;SDS011;17437;47.188;8.896;2022-12-24T00:44:15;0.25;;;0.20;;
30677;SDS011;17437;47.188;8.896;2022-12-24T00:46:47;0.35;;;0.10;;
30677;SDS011;17437;47.188;8.896;2022-12-24T00:49:19;0.68;;;0.30;;
30677;SDS011;17437;47.188;8.896;2022-12-24T00:51:51;0.10;;;0.10;;
30677;SDS011;17437;47.188;8.896;2022-12-24T00:54:22;0.10;;;0.10;;
30677;SDS011;17437;47.188;8.896;2022-12-24T00:56:54;0.00;;;0.00;;
30677;SDS011;17437;47.188;8.896;2022-12-24T00:59:26;0.60;;;0.13;;
30677;SDS011;17437;47.188;8.896;2022-12-24T01:01:57;0.47;;;0.10;;
30677;SDS011;17437;47.188;8.896;2022-12-24T01:04:29;0.17;;;0.03;;
30677;SDS011;17437;47.188;8.896;2022-12-24T01:07:18;0.28;;;0.20;;
30677;SDS011;17437;47.188;8.896;2022-12-24T01:09:50;0.95;;;0.30;;
30677;SDS011;17437;47.188;8.896;2022-12-24T01:12:21;0.30;;;0.10;;
30677;SDS011;17437;47.188;8.896;2022-12-24T01:14:53;2.25;;;0.30;;
30677;SDS011;17437;47.188;8.896;2022-12-24T01:17:24;0.88;;;0.10;;
30677;SDS011;17437;47.188;8.896;2022-12-24T01:19:56;0.30;;;0.20;;
30677;SDS011;17437;47.188;8.896;2022-12-24T01:22:27;1.40;;;0.20;;
30677;SDS011;17437;47.188;8.896;2022-12-24T01:24:59;0.82;;;0.68;;
30677;SDS011;17437;47.188;8.896;2022-12-24T01:27:30;0.90;;;0.20;;
30677;SDS011;17437;47.188;8.896;2022-12-24T01:30:02;0.20;;;0.20;;
30677;SDS011;17437;47.188;8.896;2022-12-24T01:32:35;1.25;;;0.28;;
30677;SDS011;17437;47.188;8.896;2022-12-24T01:35:07;1.02;;;0.20;;
30677;SDS011;17437;47.188;8.896;2022-12-24T01:37:41;0.75;;;0.68;;
30677;SDS011;17437;47.188;8.896;2022-12-24T01:40:13;0.62;;;0.33;;
30677;SDS011;17437;47.188;8.896;2022-12-24T01:43:07;0.57;;;0.10;;
30677;SDS011;17437;47.188;8.896;2022-12-24T01:45:56;0.78;;;0.20;;
30677;SDS011;17437;47.188;8.896;2022-12-24T01:48:37;0.93;;;0.20;;
30677;SDS011;17437;47.188;8.896;2022-12-24T01:51:13;1.32;;;0.20;;
30677;SDS011;17437;47.188;8.896;2022-12-24T01:53:47;1.92;;;0.40;;
30677;SDS011;17437;47.188;8.896;2022-12-24T01:56:21;2.33;;;0.25;;
30677;SDS011;17437;47.188;8.896;2022-12-24T01:58:54;6.17;;;1.87;;
30677;SDS011;17437;47.188;8.896;2022-12-24T02:01:29;0.90;;;0.30;;
30677;SDS011;17437;47.188;8.896;2022-12-24T02:04:00;2.02;;;0.35;;
30677;SDS011;17437;47.188;8.896;2022-12-24T02:06:35;3.12;;;0.40;;
30677;SDS011;17437;47.188;8.896;2022-12-24T02:09:07;1.85;;;0.53;;
30677;SDS011;17437;47.188;8.896;2022-12-24T02:11:38;0.55;;;0.20;;
30677;SDS011;17437;47.188;8.896;2022-12-24T02:14:12;0.23;;;0.10;;
30677;SDS011;17437;47.188;8.896;2022-12-24T02:16:47;1.35;;;0.10;;
30677;SDS011;17437;47.188;8.896;2022-12-24T02:22:40;1.37;;;0.20;;
30677;SDS011;17437;47.188;8.896;2022-12-24T02:25:23;0.30;;;0.13;;
30677;SDS011;17437;47.188;8.896;2022-12-24T02:28:06;0.30;;;0.10;;
30677;SDS011;17437;47.188;8.896;2022-12-24T02:30:41;0.45;;;0.10;;
30677;SDS011;17437;47.188;8.896;2022-12-24T02:33:19;0.20;;;0.08;;
30677;SDS011;17437;47.188;8.896;2022-12-24T02:35:56;0.30;;;0.10;;
30677;SDS011;17437;47.188;8.896;2022-12-24T02:38:31;0.35;;;0.00;;
30677;SDS011;17437;47.188;8.896;2022-12-24T02:41:06;0.30;;;0.10;;
30677;SDS011;17437;47.188;8.896;2022-12-24T02:43:40;0.20;;;0.10;;
30677;SDS011;17437;47.188;8.896;2022-12-24T02:46:15;0.10;;;0.10;;
30677;SDS011;17437;47.188;8.896;2022-12-24T02:48:48;0.00;;;0.00;;
30677;SDS011;17437;47.188;8.896;2022-12-24T02:51:21;0.20;;;0.10;;
30677;SDS011;17437;47.188;8.896;2022-12-24T02:53:53;0.55;;;0.20;;
30677;SDS011;17437;47.188;8.896;2022-12-24T02:56:34;0.53;;;0.20;;
30677;SDS011;17437;47.188;8.896;2022-12-24T02:59:11;0.00;;;0.00;;
30677;SDS011;17437;47.188;8.896;2022-12-24T03:01:51;1.17;;;0.25;;
30677;SDS011;17437;47.188;8.896;2022-12-24T03:04:28;0.03;;;0.00;;
30677;SDS011;17437;47.188;8.896;2022-12-24T03:07:12;0.35;;;0.10;;
30677;SDS011;17437;47.188;8.896;2022-12-24T03:10:08;0.13;;;0.10;;
30677;SDS011;17437;47.188;8.896;2022-12-24T03:12:43;0.23;;;0.20;;
30677;SDS011;17437;47.188;8.896;2022-12-24T03:15:18;0.35;;;0.15;;
30677;SDS011;17437;47.188;8.896;2022-12-24T03:17:53;0.10;;;0.10;;
30677;SDS011;17437;47.188;8.896;2022-12-24T03:20:29;0.00;;;0.00;;
30677;SDS011;17437;47.188;8.896;2022-12-24T03:23:02;0.60;;;0.10;;
30677;SDS011;17437;47.188;8.896;2022-12-24T03:25:34;0.10;;;0.10;;
30677;SDS011;17437;47.188;8.896;2022-12-24T03:28:10;0.37;;;0.23;;
30677;SDS011;17437;47.188;8.896;2022-12-24T03:31:03;0.98;;;0.20;;
30677;SDS011;17437;47.188;8.896;2022-12-24T03:33:35;1.25;;;0.10;;
30677;SDS011;17437;47.188;8.896;2022-12-24T03:36:09;0.15;;;0.10;;
30677;SDS011;17437;47.188;8.896;2022-12-24T03:38:41;0.10;;;0.10;;
30677;SDS011;17437;47.188;8.896;2022-12-24T03:41:12;0.35;;;0.10;;
30677;SDS011;17437;47.188;8.896;2022-12-24T03:43:43;0.20;;;0.20;;
30677;SDS011;17437;47.188;8.896;2022-12-24T03:46:15;1.37;;;0.05;;
30677;SDS011;17437;47.188;8.896;2022-12-24T03:48:46;0.10;;;0.10;;
30677;SDS011;17437;47.188;8.896;2022-12-24T03:51:19;0.42;;;0.20;;
30677;SDS011;17437;47.188;8.896;2022-12-24T03:53:52;0.20;;;0.10;;
30677;SDS011;17437;47.188;8.896;2022-12-24T03:56:24;0.68;;;0.10;;
30677;SDS011;17437;47.188;8.896;2022-12-24T03:58:55;0.35;;;0.10;;
30677;SDS011;17437;47.188;8.896;2022-12-24T04:01:27;1.65;;;0.40;;
30677;SDS011;17437;47.188;8.896;2022-12-24T04:03:59;0.95;;;0.10;;
30677;SDS011;17437;47.188;8.896;2022-12-24T04:06:30;0.10;;;0.10;;
30677;SDS011;17437;47.188;8.896;2022-12-24T04:09:02;0.10;;;0.10;;
30677;SDS011;17437;47.188;8.896;2022-12-24T04:11:33;0.10;;;0.10;;
30677;SDS011;17437;47.188;8.896;2022-12-24T04:14:05;0.20;;;0.10;;
30677;SDS011;17437;47.188;8.896;2022-12-24T04:16:36;0.30;;;0.10;;
30677;SDS011;17437;47.188;8.896;2022-12-24T04:19:08;0.10;;;0.10;;
30677;SDS011;17437;47.188;8.896;2022-12-24T04:21:39;1.20;;;0.30;;
30677;SDS011;17437;47.188;8.896;2022-12-24T04:24:11;0.20;;;0.17;;
30677;SDS011;17437;47.188;8.896;2022-12-24T04:26:42;0.23;;;0.10;;
30677;SDS011;17437;47.188;8.896;2022-12-24T04:29:14;1.15;;;0.20;;
30677;SDS011;17437;47.188;8.896;2022-12-24T04:31:45;0.45;;;0.20;;
30677;SDS011;17437;47.188;8.896;2022-12-24T04:34:17;0.68;;;0.15;;
30677;SDS011;17437;47.188;8.896;2022-12-24T04:36:48;0.90;;;0.20;;
30677;SDS011;17437;47.188;8.896;2022-12-24T04:39:19;0.35;;;0.20;;
30677;SDS011;17437;47.188;8.896;2022-12-24T04:41:51;0.20;;;0.20;;
30677;SDS011;17437;47.188;8.896;2022-12-24T04:44:22;0.75;;;0.20;;
30677;SDS011;17437;47.188;8.896;2022-12-24T04:46:54;0.17;;;0.10;;
30677;SDS011;17437;47.188;8.896;2022-12-24T04:49:25;1.30;;;0.30;;
30677;SDS011;17437;47.188;8.896;2022-12-24T04:51:57;1.50;;;0.50;;
30677;SDS011;17437;47.188;8.896;2022-12-24T04:54:29;0.78;;;0.33;;
30677;SDS011;17437;47.188;8.896;2022-12-24T04:57:01;2.00;;;0.62;;
30677;SDS011;17437;47.188;8.896;2022-12-24T04:59:32;0.75;;;0.28;;
30677;SDS011;17437;47.188;8.896;2022-12-24T05:02:04;0.98;;;0.37;;
30677;SDS011;17437;47.188;8.896;2022-12-24T05:04:36;1.67;;;0.23;;
30677;SDS011;17437;47.188;8.896;2022-12-24T05:07:07;0.20;;;0.20;;
30677;SDS011;17437;47.188;8.896;2022-12-24T05:09:38;0.93;;;0.30;;
30677;SDS011;17437;47.188;8.896;2022-12-24T05:12:10;1.85;;;0.30;;
30677;SDS011;17437;47.188;8.896;2022-12-24T05:14:44;1.47;;;0.45;;
30677;SDS011;17437;47.188;8.896;2022-12-24T05:17:16;1.75;;;0.65;;
30677;SDS011;17437;47.188;8.896;2022-12-24T05:19:47;0.82;;;0.37;;
30677;SDS011;17437;47.188;8.896;2022-12-24T05:22:18;0.45;;;0.28;;
30677;SDS011;17437;47.188;8.896;2022-12-24T05:25:09;2.35;;;0.30;;
30677;SDS011;17437;47.188;8.896;2022-12-24T05:27:58;0.17;;;0.15;;
30677;SDS011;17437;47.188;8.896;2022-12-24T05:30:29;0.57;;;0.45;;
30677;SDS011;17437;47.188;8.896;2022-12-24T05:33:02;0.80;;;0.45;;
30677;SDS011;17437;47.188;8.896;2022-12-24T05:35:34;0.72;;;0.50;;
30677;SDS011;17437;47.188;8.896;2022-12-24T05:38:05;1.35;;;0.37;;
30677;SDS011;17437;47.188;8.896;2022-12-24T05:40:36;0.20;;;0.20;;
30677;SDS011;17437;47.188;8.896;2022-12-24T05:43:08;1.82;;;0.33;;
30677;SDS011;17437;47.188;8.896;2022-12-24T05:45:39;0.35;;;0.17;;
30677;SDS011;17437;47.188;8.896;2022-12-24T05:48:11;0.80;;;0.20;;
30677;SDS011;17437;47.188;8.896;2022-12-24T05:50:42;1.35;;;0.80;;
30677;SDS011;17437;47.188;8.896;2022-12-24T05:53:14;4.95;;;0.30;;
30677;SDS011;17437;47.188;8.896;2022-12-24T05:55:46;0.10;;;0.10;;
30677;SDS011;17437;47.188;8.896;2022-12-24T05:58:18;0.13;;;0.10;;
30677;SDS011;17437;47.188;8.896;2022-12-24T06:00:52;0.30;;;0.17;;
30677;SDS011;17437;47.188;8.896;2022-12-24T06:03:23;1.00;;;0.70;;
30677;SDS011;17437;47.188;8.896;2022-12-24T06:05:59;0.47;;;0.37;;
30677;SDS011;17437;47.188;8.896;2022-12-24T06:08:31;0.40;;;0.20;;
30677;SDS011;17437;47.188;8.896;2022-12-24T06:11:04;0.33;;;0.28;;
30677;SDS011;17437;47.188;8.896;2022-12-24T06:13:39;0.35;;;0.35;;
30677;SDS011;17437;47.188;8.896;2022-12-24T06:16:11;0.23;;;0.10;;
30677;SDS011;17437;47.188;8.896;2022-12-24T06:18:45;0.10;;;0.10;;
30677;SDS011;17437;47.188;8.896;2022-12-24T06:21:17;1.07;;;0.30;;
30677;SDS011;17437;47.188;8.896;2022-12-24T06:23:49;1.22;;;0.50;;
30677;SDS011;17437;47.188;8.896;2022-12-24T06:26:21;1.35;;;0.30;;
30677;SDS011;17437;47.188;8.896;2022-12-24T06:28:53;0.75;;;0.20;;
30677;SDS011;17437;47.188;8.896;2022-12-24T06:31:24;3.15;;;0.60;;
30677;SDS011;17437;47.188;8.896;2022-12-24T06:33:55;0.80;;;0.40;;
30677;SDS011;17437;47.188;8.896;2022-12-24T06:36:26;1.10;;;0.40;;
30677;SDS011;17437;47.188;8.896;2022-12-24T06:38:58;3.70;;;0.60;;
30677;SDS011;17437;47.188;8.896;2022-12-24T06:41:29;1.75;;;0.78;;
30677;SDS011;17437;47.188;8.896;2022-12-24T06:44:01;3.35;;;2.02;;
30677;SDS011;17437;47.188;8.896;2022-12-24T06:46:32;0.90;;;0.70;;
30677;SDS011;17437;47.188;8.896;2022-12-24T06:49:04;0.60;;;0.60;;
30677;SDS011;17437;47.188;8.896;2022-12-24T06:51:35;2.35;;;0.62;;
30677;SDS011;17437;47.188;8.896;2022-12-24T06:54:08;6.08;;;3.90;;
30677;SDS011;17437;47.188;8.896;2022-12-24T06:56:42;7.03;;;5.95;;
30677;SDS011;17437;47.188;8.896;2022-12-24T06:59:13;2.62;;;1.70;;
30677;SDS011;17437;47.188;8.896;2022-12-24T07:01:51;2.85;;;1.10;;
30677;SDS011;17437;47.188;8.896;2022-12-24T07:04:23;3.33;;;2.02;;
30677;SDS011;17437;47.188;8.896;2022-12-24T07:06:54;0.82;;;0.78;;
30677;SDS011;17437;47.188;8.896;2022-12-24T07:09:26;3.37;;;1.10;;
30677;SDS011;17437;47.188;8.896;2022-12-24T07:11:57;0.95;;;0.80;;
30677;SDS011;17437;47.188;8.896;2022-12-24T07:14:30;1.32;;;1.17;;
30677;SDS011;17437;47.188;8.896;2022-12-24T07:17:02;1.10;;;0.88;;
30677;SDS011;17437;47.188;8.896;2022-12-24T07:19:34;1.90;;;1.02;;
30677;SDS011;17437;47.188;8.896;2022-12-24T07:22:05;2.02;;;1.00;;
30677;SDS011;17437;47.188;8.896;2022-12-24T07:24:39;8.45;;;1.98;;
30677;SDS011;17437;47.188;8.896;2022-12-24T07:27:10;1.62;;;1.02;;
30677;SDS011;17437;47.188;8.896;2022-12-24T07:29:42;2.08;;;1.65;;
30677;SDS011;17437;47.188;8.896;2022-12-24T07:32:13;8.25;;;6.28;;
30677;SDS011;17437;47.188;8.896;2022-12-24T07:34:45;3.75;;;1.62;;
30677;SDS011;17437;47.188;8.896;2022-12-24T07:37:17;1.30;;;1.02;;
30677;SDS011;17437;47.188;8.896;2022-12-24T07:39:48;1.98;;;0.85;;
30677;SDS011;17437;47.188;8.896;2022-12-24T07:42:20;2.72;;;0.70;;
30677;SDS011;17437;47.188;8.896;2022-12-24T07:44:52;0.60;;;0.60;;
30677;SDS011;17437;47.188;8.896;2022-12-24T07:47:25;4.10;;;0.30;;
30677;SDS011;17437;47.188;8.896;2022-12-24T07:49:56;3.55;;;0.20;;
30677;SDS011;17437;47.188;8.896;2022-12-24T07:52:27;0.57;;;0.50;;
30677;SDS011;17437;47.188;8.896;2022-12-24T07:54:59;0.85;;;0.30;;
30677;SDS011;17437;47.188;8.896;2022-12-24T07:57:30;3.00;;;0.50;;
30677;SDS011;17437;47.188;8.896;2022-12-24T08:00:02;2.10;;;0.68;;
30677;SDS011;17437;47.188;8.896;2022-12-24T08:02:36;8.23;;;7.42;;
30677;SDS011;17437;47.188;8.896;2022-12-24T08:05:08;6.92;;;3.92;;
30677;SDS011;17437;47.188;8.896;2022-12-24T08:07:40;2.50;;;0.70;;
30677;SDS011;17437;47.188;8.896;2022-12-24T08:10:11;2.20;;;0.80;;
30677;SDS011;17437;47.188;8.896;2022-12-24T08:12:43;0.75;;;0.40;;
30677;SDS011;17437;47.188;8.896;2022-12-24T08:15:16;0.50;;;0.40;;
30677;SDS011;17437;47.188;8.896;2022-12-24T08:17:48;0.88;;;0.40;;
30677;SDS011;17437;47.188;8.896;2022-12-24T08:20:22;0.80;;;0.53;;
30677;SDS011;17437;47.188;8.896;2022-12-24T08:22:53;0.98;;;0.68;;
30677;SDS011;17437;47.188;8.896;2022-12-24T08:25:25;2.22;;;0.80;;
30677;SDS011;17437;47.188;8.896;2022-12-24T08:27:57;0.93;;;0.62;;
30677;SDS011;17437;47.188;8.896;2022-12-24T08:30:28;0.40;;;0.40;;
30677;SDS011;17437;47.188;8.896;2022-12-24T08:33:00;4.10;;;1.10;;
30677;SDS011;17437;47.188;8.896;2022-12-24T08:35:31;0.90;;;0.70;;
30677;SDS011;17437;47.188;8.896;2022-12-24T08:38:03;1.25;;;0.75;;
30677;SDS011;17437;47.188;8.896;2022-12-24T08:40:34;3.10;;;0.93;;
30677;SDS011;17437;47.188;8.896;2022-12-24T08:43:06;2.05;;;1.10;;
30677;SDS011;17437;47.188;8.896;2022-12-24T08:45:37;1.40;;;1.15;;
30677;SDS011;17437;47.188;8.896;2022-12-24T08:48:09;2.35;;;1.00;;
30677;SDS011;17437;47.188;8.896;2022-12-24T08:50:41;1.98;;;0.93;;
30677;SDS011;17437;47.188;8.896;2022-12-24T08:53:13;2.55;;;1.37;;
30677;SDS011;17437;47.188;8.896;2022-12-24T08:55:44;4.45;;;2.62;;
30677;SDS011;17437;47.188;8.896;2022-12-24T08:58:18;2.42;;;1.85;;
30677;SDS011;17437;47.188;8.896;2022-12-24T09:00:49;3.67;;;2.15;;
30677;SDS011;17437;47.188;8.896;2022-12-24T09:03:21;5.37;;;2.10;;
30677;SDS011;17437;47.188;8.896;2022-12-24T09:05:54;4.80;;;1.95;;
30677;SDS011;17437;47.188;8.896;2022-12-24T09:08:25;2.85;;;2.52;;
30677;SDS011;17437;47.188;8.896;2022-12-24T09:11:01;4.87;;;2.50;;
30677;SDS011;17437;47.188;8.896;2022-12-24T09:13:34;3.33;;;2.60;;
30677;SDS011;17437;47.188;8.896;2022-12-24T09:16:06;2.40;;;1.60;;
30677;SDS011;17437;47.188;8.896;2022-12-24T09:18:38;3.35;;;1.65;;
30677;SDS011;17437;47.188;8.896;2022-12-24T09:21:11;3.42;;;2.45;;
30677;SDS011;17437;47.188;8.896;2022-12-24T09:23:46;9.33;;;3.25;;
30677;SDS011;17437;47.188;8.896;2022-12-24T09:26:18;3.12;;;2.10;;
30677;SDS011;17437;47.188;8.896;2022-12-24T09:28:51;4.37;;;2.15;;
30677;SDS011;17437;47.188;8.896;2022-12-24T09:31:23;5.10;;;2.27;;
30677;SDS011;17437;47.188;8.896;2022-12-24T09:33:55;2.62;;;1.90;;
30677;SDS011;17437;47.188;8.896;2022-12-24T09:36:26;5.10;;;2.72;;
30677;SDS011;17437;47.188;8.896;2022-12-24T09:38:58;6.47;;;2.12;;
30677;SDS011;17437;47.188;8.896;2022-12-24T09:41:32;5.22;;;1.80;;
30677;SDS011;17437;47.188;8.896;2022-12-24T09:44:15;4.90;;;1.77;;
30677;SDS011;17437;47.188;8.896;2022-12-24T09:46:51;3.85;;;1.47;;
30677;SDS011;17437;47.188;8.896;2022-12-24T09:49:24;4.45;;;2.85;;
30677;SDS011;17437;47.188;8.896;2022-12-24T09:51:58;3.58;;;1.80;;
30677;SDS011;17437;47.188;8.896;2022-12-24T09:54:33;2.50;;;1.05;;
30677;SDS011;17437;47.188;8.896;2022-12-24T09:57:13;2.47;;;1.40;;
30677;SDS011;17437;47.188;8.896;2022-12-24T09:59:46;6.90;;;2.00;;
30677;SDS011;17437;47.188;8.896;2022-12-24T10:02:18;4.65;;;2.42;;
30677;SDS011;17437;47.188;8.896;2022-12-24T10:04:50;3.72;;;1.60;;
30677;SDS011;17437;47.188;8.896;2022-12-24T10:07:27;2.12;;;0.98;;
30677;SDS011;17437;47.188;8.896;2022-12-24T10:10:05;4.83;;;1.50;;
30677;SDS011;17437;47.188;8.896;2022-12-24T10:12:42;5.05;;;1.98;;
30677;SDS011;17437;47.188;8.896;2022-12-24T10:15:20;4.00;;;2.40;;
30677;SDS011;17437;47.188;8.896;2022-12-24T10:17:58;2.77;;;1.85;;
30677;SDS011;17437;47.188;8.896;2022-12-24T10:20:43;13.62;;;3.75;;
30677;SDS011;17437;47.188;8.896;2022-12-24T10:23:19;3.00;;;1.77;;
30677;SDS011;17437;47.188;8.896;2022-12-24T10:25:55;1.90;;;1.17;;
30677;SDS011;17437;47.188;8.896;2022-12-24T10:28:37;4.80;;;1.55;;
30677;SDS011;17437;47.188;8.896;2022-12-24T10:31:22;4.90;;;2.40;;
30677;SDS011;17437;47.188;8.896;2022-12-24T10:33:56;6.72;;;2.33;;
30677;SDS011;17437;47.188;8.896;2022-12-24T10:36:29;5.15;;;2.12;;
30677;SDS011;17437;47.188;8.896;2022-12-24T10:39:01;2.52;;;2.00;;
30677;SDS011;17437;47.188;8.896;2022-12-24T10:41:33;3.05;;;1.70;;
30677;SDS011;17437;47.188;8.896;2022-12-24T10:44:07;15.40;;;4.05;;
30677;SDS011;17437;47.188;8.896;2022-12-24T10:46:41;3.45;;;1.90;;
30677;SDS011;17437;47.188;8.896;2022-12-24T10:49:15;3.83;;;2.37;;
30677;SDS011;17437;47.188;8.896;2022-12-24T10:51:50;4.33;;;1.82;;
30677;SDS011;17437;47.188;8.896;2022-12-24T10:54:23;3.65;;;1.00;;
30677;SDS011;17437;47.188;8.896;2022-12-24T10:56:57;2.62;;;2.37;;
30677;SDS011;17437;47.188;8.896;2022-12-24T10:59:33;1.70;;;1.20;;
30677;SDS011;17437;47.188;8.896;2022-12-24T11:02:09;2.58;;;1.80;;
30677;SDS011;17437;47.188;8.896;2022-12-24T11:04:56;5.25;;;1.85;;
30677;SDS011;17437;47.188;8.896;2022-12-24T11:07:29;9.10;;;1.35;;
30677;SDS011;17437;47.188;8.896;2022-12-24T11:10:02;2.05;;;1.00;;
30677;SDS011;17437;47.188;8.896;2022-12-24T11:12:36;1.92;;;0.85;;
30677;SDS011;17437;47.188;8.896;2022-12-24T11:15:14;3.08;;;1.50;;
30677;SDS011;17437;47.188;8.896;2022-12-24T11:17:52;1.80;;;1.70;;
30677;SDS011;17437;47.188;8.896;2022-12-24T11:20:26;1.95;;;0.95;;
30677;SDS011;17437;47.188;8.896;2022-12-24T11:22:59;0.93;;;0.72;;
30677;SDS011;17437;47.188;8.896;2022-12-24T11:25:31;2.95;;;0.80;;
30677;SDS011;17437;47.188;8.896;2022-12-24T11:28:10;2.20;;;0.80;;
30677;SDS011;17437;47.188;8.896;2022-12-24T11:30:44;1.40;;;1.10;;
30677;SDS011;17437;47.188;8.896;2022-12-24T11:33:26;2.30;;;1.92;;
30677;SDS011;17437;47.188;8.896;2022-12-24T11:36:02;4.78;;;0.80;;
30677;SDS011;17437;47.188;8.896;2022-12-24T11:38:36;1.37;;;1.10;;
30677;SDS011;17437;47.188;8.896;2022-12-24T11:41:09;4.22;;;1.22;;
30677;SDS011;17437;47.188;8.896;2022-12-24T11:43:42;1.55;;;1.10;;
30677;SDS011;17437;47.188;8.896;2022-12-24T11:46:19;3.98;;;1.60;;
30677;SDS011;17437;47.188;8.896;2022-12-24T11:49:04;2.15;;;1.50;;
30677;SDS011;17437;47.188;8.896;2022-12-24T11:51:38;1.65;;;1.00;;
30677;SDS011;17437;47.188;8.896;2022-12-24T11:54:13;2.58;;;1.55;;
30677;SDS011;17437;47.188;8.896;2022-12-24T11:56:47;1.12;;;0.82;;
30677;SDS011;17437;47.188;8.896;2022-12-24T11:59:23;2.15;;;1.20;;
30677;SDS011;17437;47.188;8.896;2022-12-24T12:01:57;4.83;;;2.77;;
30677;SDS011;17437;47.188;8.896;2022-12-24T12:04:31;1.65;;;1.00;;
30677;SDS011;17437;47.188;8.896;2022-12-24T12:07:05;1.95;;;0.68;;
30677;SDS011;17437;47.188;8.896;2022-12-24T12:09:43;1.40;;;0.93;;
30677;SDS011;17437;47.188;8.896;2022-12-24T12:12:18;1.42;;;0.90;;
30677;SDS011;17437;47.188;8.896;2022-12-24T12:14:52;8.40;;;1.62;;
30677;SDS011;17437;47.188;8.896;2022-12-24T12:17:28;1.85;;;0.88;;
30677;SDS011;17437;47.188;8.896;2022-12-24T12:20:03;1.60;;;1.12;;
30677;SDS011;17437;47.188;8.896;2022-12-24T12:22:39;1.87;;;1.22;;
30677;SDS011;17437;47.188;8.896;2022-12-24T12:25:17;2.00;;;0.88;;
30677;SDS011;17437;47.188;8.896;2022-12-24T12:27:53;2.70;;;1.00;;
30677;SDS011;17437;47.188;8.896;2022-12-24T12:30:27;3.30;;;0.93;;
30677;SDS011;17437;47.188;8.896;2022-12-24T12:33:02;3.02;;;2.17;;
30677;SDS011;17437;47.188;8.896;2022-12-24T12:35:36;0.80;;;0.60;;
30677;SDS011;17437;47.188;8.896;2022-12-24T12:38:10;1.45;;;0.82;;
30677;SDS011;17437;47.188;8.896;2022-12-24T12:41:06;5.30;;;1.55;;
30677;SDS011;17437;47.188;8.896;2022-12-24T12:43:59;0.70;;;0.50;;
30677;SDS011;17437;47.188;8.896;2022-12-24T12:46:43;3.95;;;1.30;;
30677;SDS011;17437;47.188;8.896;2022-12-24T12:49:22;1.90;;;0.78;;
30677;SDS011;17437;47.188;8.896;2022-12-24T12:51:58;0.88;;;0.57;;
30677;SDS011;17437;47.188;8.896;2022-12-24T12:54:35;1.02;;;0.62;;
30677;SDS011;17437;47.188;8.896;2022-12-24T12:57:13;1.47;;;0.82;;
30677;SDS011;17437;47.188;8.896;2022-12-24T12:59:49;4.53;;;0.85;;
30677;SDS011;17437;47.188;8.896;2022-12-24T13:02:33;1.82;;;0.80;;
30677;SDS011;17437;47.188;8.896;2022-12-24T13:05:09;1.42;;;1.05;;
30677;SDS011;17437;47.188;8.896;2022-12-24T13:08:10;0.88;;;0.60;;
30677;SDS011;17437;47.188;8.896;2022-12-24T13:10:53;2.40;;;0.90;;
30677;SDS011;17437;47.188;8.896;2022-12-24T13:20:10;1.27;;;1.00;;
30677;SDS011;17437;47.188;8.896;2022-12-24T13:22:53;2.50;;;1.02;;
30677;SDS011;17437;47.188;8.896;2022-12-24T13:25:29;2.83;;;1.07;;
30677;SDS011;17437;47.188;8.896;2022-12-24T13:28:15;2.15;;;0.70;;
30677;SDS011;17437;47.188;8.896;2022-12-24T13:30:49;1.62;;;0.93;;
30677;SDS011;17437;47.188;8.896;2022-12-24T13:36:18;2.27;;;0.70;;
30677;SDS011;17437;47.188;8.896;2022-12-24T13:38:51;1.57;;;0.80;;
30677;SDS011;17437;47.188;8.896;2022-12-24T13:44:32;3.95;;;1.70;;
30677;SDS011;17437;47.188;8.896;2022-12-24T13:47:15;2.67;;;1.72;;
30677;SDS011;17437;47.188;8.896;2022-12-24T13:49:53;6.33;;;2.45;;
30677;SDS011;17437;47.188;8.896;2022-12-24T13:52:28;2.25;;;1.50;;
30677;SDS011;17437;47.188;8.896;2022-12-24T13:55:06;10.20;;;3.33;;
30677;SDS011;17437;47.188;8.896;2022-12-24T13:57:51;5.25;;;2.12;;
30677;SDS011;17437;47.188;8.896;2022-12-24T14:03:03;2.05;;;1.50;;
30677;SDS011;17437;47.188;8.896;2022-12-24T14:05:37;2.85;;;2.00;;
30677;SDS011;17437;47.188;8.896;2022-12-24T14:08:12;4.45;;;2.40;;
30677;SDS011;17437;47.188;8.896;2022-12-24T14:10:56;3.83;;;1.30;;
30677;SDS011;17437;47.188;8.896;2022-12-24T14:16:22;2.20;;;0.80;;
30677;SDS011;17437;47.188;8.896;2022-12-24T14:18:59;4.12;;;0.88;;
30677;SDS011;17437;47.188;8.896;2022-12-24T14:21:33;1.57;;;0.75;;
30677;SDS011;17437;47.188;8.896;2022-12-24T14:24:11;1.82;;;0.90;;
30677;SDS011;17437;47.188;8.896;2022-12-24T14:26:45;2.77;;;1.12;;
30677;SDS011;17437;47.188;8.896;2022-12-24T14:29:21;0.65;;;0.42;;
30677;SDS011;17437;47.188;8.896;2022-12-24T14:31:56;0.65;;;0.30;;
30677;SDS011;17437;47.188;8.896;2022-12-24T14:34:31;0.37;;;0.37;;
30677;SDS011;17437;47.188;8.896;2022-12-24T14:37:03;1.05;;;0.20;;
30677;SDS011;17437;47.188;8.896;2022-12-24T14:39:35;1.20;;;0.55;;
30677;SDS011;17437;47.188;8.896;2022-12-24T14:42:15;1.10;;;0.53;;
30677;SDS011;17437;47.188;8.896;2022-12-24T14:44:55;1.15;;;0.72;;
30677;SDS011;17437;47.188;8.896;2022-12-24T14:47:32;3.02;;;0.82;;
30677;SDS011;17437;47.188;8.896;2022-12-24T14:50:24;1.47;;;0.82;;
30677;SDS011;17437;47.188;8.896;2022-12-24T14:52:57;1.80;;;0.80;;
30677;SDS011;17437;47.188;8.896;2022-12-24T14:55:35;1.95;;;0.90;;
30677;SDS011;17437;47.188;8.896;2022-12-24T14:58:20;1.60;;;0.98;;
30677;SDS011;17437;47.188;8.896;2022-12-24T15:00:56;2.35;;;1.95;;
30677;SDS011;17437;47.188;8.896;2022-12-24T15:03:30;2.02;;;1.22;;
30677;SDS011;17437;47.188;8.896;2022-12-24T15:06:03;1.42;;;1.30;;
30677;SDS011;17437;47.188;8.896;2022-12-24T15:08:37;3.40;;;1.62;;
30677;SDS011;17437;47.188;8.896;2022-12-24T15:11:13;1.60;;;1.17;;
30677;SDS011;17437;47.188;8.896;2022-12-24T15:13:48;2.52;;;1.50;;
30677;SDS011;17437;47.188;8.896;2022-12-24T15:16:22;3.27;;;1.65;;
30677;SDS011;17437;47.188;8.896;2022-12-24T15:18:56;1.32;;;1.22;;
30677;SDS011;17437;47.188;8.896;2022-12-24T15:21:30;1.62;;;1.25;;
30677;SDS011;17437;47.188;8.896;2022-12-24T15:24:17;2.72;;;1.15;;
30677;SDS011;17437;47.188;8.896;2022-12-24T15:26:54;1.42;;;0.80;;
30677;SDS011;17437;47.188;8.896;2022-12-24T15:29:26;1.90;;;1.35;;
30677;SDS011;17437;47.188;8.896;2022-12-24T15:32:02;2.15;;;0.80;;
30677;SDS011;17437;47.188;8.896;2022-12-24T15:34:35;2.55;;;1.55;;
30677;SDS011;17437;47.188;8.896;2022-12-24T15:37:11;4.22;;;2.83;;
30677;SDS011;17437;47.188;8.896;2022-12-24T15:39:45;2.20;;;1.80;;
30677;SDS011;17437;47.188;8.896;2022-12-24T15:42:22;2.80;;;1.70;;
30677;SDS011;17437;47.188;8.896;2022-12-24T15:44:56;2.20;;;1.17;;
30677;SDS011;17437;47.188;8.896;2022-12-24T15:47:31;1.10;;;1.00;;
30677;SDS011;17437;47.188;8.896;2022-12-24T15:50:12;3.25;;;1.17;;
30677;SDS011;17437;47.188;8.896;2022-12-24T15:52:46;2.60;;;1.00;;